YCEM weather

Coldstream Airport
Coldstream, Victoria, Australia

Public forecast

Using degrees Celsius for public forecast. Weather courtesy of forecast.io.

METAR (pilot weather report)

Closest report is Melbourne Essendon Airport, 24.0 nm (44.5 km) W. Retrieved 2018/08/18 12:00 UTC (1 hour ago):

YMEN 181200Z AUTO 26021KT 9999 -RA SCT033 BKN047 BKN054 07/05 Q1012

TAF (pilot weather forecast)

Closest forecast is Melbourne International Airport, 27.1 nm (50.1 km) W. Retrieved 2018/08/18 12:36 UTC (24 minutes ago):

TAF YMML 181117Z 1812/1918 27015G25KT 9999 -SHRA FEW025 SCT040 FM181700 24015G25KT 9999 -SHRA SCT025 BKN035 FM182200 21020G35KT 9999 SHRA SCT025 BKN035 FM190800 22014KT 9999 -SHRA SCT025 BKN035 FM191400 25012KT 9999 SCT035 INTER 1812/1814 3000 SHRAGS SCT020 BKN030 INTER 1820/1912 21025G42KT 3000 SHRAGS BKN010